sensor_id;sensor_type;location;lat;lon;timestamp;P1;durP1;ratioP1;P2;durP2;ratioP2
21624;SDS011;10974;51.034;3.744;2023-06-14T03:41:33;3.83;;;3.53;;
21624;SDS011;10974;51.034;3.744;2023-06-14T03:43:59;4.23;;;3.80;;
21624;SDS011;10974;51.034;3.744;2023-06-14T03:46:25;4.80;;;3.80;;
21624;SDS011;10974;51.034;3.744;2023-06-14T03:48:51;3.40;;;3.10;;
21624;SDS011;10974;51.034;3.744;2023-06-14T03:51:17;3.70;;;3.40;;
21624;SDS011;10974;51.034;3.744;2023-06-14T03:53:43;3.60;;;3.30;;
21624;SDS011;10974;51.034;3.744;2023-06-14T03:56:09;4.27;;;3.87;;
21624;SDS011;10974;51.034;3.744;2023-06-14T03:58:35;6.70;;;3.67;;
21624;SDS011;10974;51.034;3.744;2023-06-14T04:01:01;4.03;;;3.63;;
21624;SDS011;10974;51.034;3.744;2023-06-14T04:03:27;3.97;;;3.57;;
21624;SDS011;10974;51.034;3.744;2023-06-14T04:05:54;3.43;;;3.13;;
21624;SDS011;10974;51.034;3.744;2023-06-14T04:08:21;3.80;;;3.30;;
21624;SDS011;10974;51.034;3.744;2023-06-14T04:10:48;3.43;;;3.07;;
21624;SDS011;10974;51.034;3.744;2023-06-14T04:13:14;3.57;;;3.27;;
21624;SDS011;10974;51.034;3.744;2023-06-14T04:15:40;3.40;;;3.10;;
21624;SDS011;10974;51.034;3.744;2023-06-14T04:18:11;2.97;;;2.77;;
21624;SDS011;10974;51.034;3.744;2023-06-14T04:20:37;3.80;;;3.30;;
21624;SDS011;10974;51.034;3.744;2023-06-14T04:23:16;3.90;;;3.40;;
21624;SDS011;10974;51.034;3.744;2023-06-14T04:25:47;4.23;;;3.60;;
21624;SDS011;10974;51.034;3.744;2023-06-14T04:28:14;3.13;;;2.87;;
21624;SDS011;10974;51.034;3.744;2023-06-14T04:30:41;3.50;;;3.20;;
21624;SDS011;10974;51.034;3.744;2023-06-14T04:33:07;3.73;;;3.43;;
21624;SDS011;10974;51.034;3.744;2023-06-14T04:35:34;3.87;;;3.17;;
21624;SDS011;10974;51.034;3.744;2023-06-14T04:38:02;4.07;;;3.67;;
21624;SDS011;10974;51.034;3.744;2023-06-14T04:40:30;4.50;;;3.83;;
21624;SDS011;10974;51.034;3.744;2023-06-14T04:42:56;4.50;;;3.70;;
21624;SDS011;10974;51.034;3.744;2023-06-14T04:45:23;4.37;;;3.63;;
21624;SDS011;10974;51.034;3.744;2023-06-14T04:47:49;4.07;;;3.67;;
21624;SDS011;10974;51.034;3.744;2023-06-14T04:50:16;5.70;;;3.73;;
21624;SDS011;10974;51.034;3.744;2023-06-14T04:52:43;3.90;;;3.50;;
21624;SDS011;10974;51.034;3.744;2023-06-14T04:55:09;3.70;;;3.30;;
21624;SDS011;10974;51.034;3.744;2023-06-14T04:57:35;4.00;;;3.57;;
21624;SDS011;10974;51.034;3.744;2023-06-14T05:00:03;3.63;;;3.27;;
21624;SDS011;10974;51.034;3.744;2023-06-14T05:02:30;3.80;;;3.50;;
21624;SDS011;10974;51.034;3.744;2023-06-14T05:04:56;3.50;;;3.20;;
21624;SDS011;10974;51.034;3.744;2023-06-14T05:07:24;4.93;;;4.03;;
21624;SDS011;10974;51.034;3.744;2023-06-14T05:09:51;4.63;;;4.20;;
21624;SDS011;10974;51.034;3.744;2023-06-14T05:12:17;3.93;;;3.47;;
21624;SDS011;10974;51.034;3.744;2023-06-14T05:14:44;3.70;;;3.40;;
21624;SDS011;10974;51.034;3.744;2023-06-14T05:17:10;9.53;;;4.33;;
21624;SDS011;10974;51.034;3.744;2023-06-14T05:19:36;5.73;;;4.60;;
21624;SDS011;10974;51.034;3.744;2023-06-14T05:22:02;7.80;;;5.03;;
21624;SDS011;10974;51.034;3.744;2023-06-14T05:24:28;10.00;;;5.13;;
21624;SDS011;10974;51.034;3.744;2023-06-14T05:26:57;8.37;;;4.90;;
21624;SDS011;10974;51.034;3.744;2023-06-14T05:29:23;5.77;;;4.40;;
21624;SDS011;10974;51.034;3.744;2023-06-14T05:31:50;8.23;;;5.20;;
21624;SDS011;10974;51.034;3.744;2023-06-14T05:34:16;21.40;;;5.90;;
21624;SDS011;10974;51.034;3.744;2023-06-14T05:36:42;8.23;;;5.23;;
21624;SDS011;10974;51.034;3.744;2023-06-14T05:39:08;9.80;;;5.30;;
21624;SDS011;10974;51.034;3.744;2023-06-14T05:41:34;8.50;;;5.13;;
21624;SDS011;10974;51.034;3.744;2023-06-14T05:44:00;12.60;;;5.17;;
21624;SDS011;10974;51.034;3.744;2023-06-14T05:46:27;6.20;;;4.50;;
21624;SDS011;10974;51.034;3.744;2023-06-14T05:48:53;13.10;;;6.70;;
21624;SDS011;10974;51.034;3.744;2023-06-14T05:51:20;7.73;;;5.20;;
21624;SDS011;10974;51.034;3.744;2023-06-14T05:53:46;11.03;;;5.07;;
21624;SDS011;10974;51.034;3.744;2023-06-14T05:56:13;9.80;;;5.43;;
21624;SDS011;10974;51.034;3.744;2023-06-14T05:58:39;13.03;;;4.93;;
21624;SDS011;10974;51.034;3.744;2023-06-14T06:01:05;9.50;;;4.60;;
21624;SDS011;10974;51.034;3.744;2023-06-14T06:03:31;10.70;;;5.20;;
21624;SDS011;10974;51.034;3.744;2023-06-14T06:05:58;9.53;;;4.60;;
21624;SDS011;10974;51.034;3.744;2023-06-14T06:08:24;11.93;;;5.00;;
21624;SDS011;10974;51.034;3.744;2023-06-14T06:10:50;8.80;;;4.00;;
21624;SDS011;10974;51.034;3.744;2023-06-14T06:13:16;8.37;;;3.90;;
21624;SDS011;10974;51.034;3.744;2023-06-14T06:15:42;8.13;;;4.60;;
21624;SDS011;10974;51.034;3.744;2023-06-14T06:18:08;9.00;;;4.90;;
21624;SDS011;10974;51.034;3.744;2023-06-14T06:20:34;6.10;;;4.60;;
21624;SDS011;10974;51.034;3.744;2023-06-14T06:23:01;10.83;;;4.80;;
21624;SDS011;10974;51.034;3.744;2023-06-14T06:25:27;9.57;;;4.27;;
21624;SDS011;10974;51.034;3.744;2023-06-14T06:27:54;7.57;;;4.60;;
21624;SDS011;10974;51.034;3.744;2023-06-14T06:30:22;14.93;;;4.83;;
21624;SDS011;10974;51.034;3.744;2023-06-14T06:32:48;11.97;;;4.80;;
21624;SDS011;10974;51.034;3.744;2023-06-14T06:35:15;5.20;;;4.10;;
21624;SDS011;10974;51.034;3.744;2023-06-14T06:37:42;6.77;;;4.50;;
21624;SDS011;10974;51.034;3.744;2023-06-14T06:40:08;4.90;;;4.40;;
21624;SDS011;10974;51.034;3.744;2023-06-14T06:42:35;6.33;;;4.30;;
21624;SDS011;10974;51.034;3.744;2023-06-14T06:45:01;6.57;;;4.27;;
21624;SDS011;10974;51.034;3.744;2023-06-14T06:47:27;8.50;;;3.90;;
21624;SDS011;10974;51.034;3.744;2023-06-14T06:49:53;8.10;;;4.60;;
21624;SDS011;10974;51.034;3.744;2023-06-14T06:52:19;11.23;;;4.70;;
21624;SDS011;10974;51.034;3.744;2023-06-14T06:54:45;9.33;;;4.17;;
21624;SDS011;10974;51.034;3.744;2023-06-14T06:57:11;4.87;;;4.00;;
21624;SDS011;10974;51.034;3.744;2023-06-14T06:59:37;7.33;;;3.77;;
21624;SDS011;10974;51.034;3.744;2023-06-14T07:02:04;7.60;;;4.43;;
21624;SDS011;10974;51.034;3.744;2023-06-14T07:04:30;10.63;;;4.10;;
21624;SDS011;10974;51.034;3.744;2023-06-14T07:06:56;6.23;;;4.60;;
21624;SDS011;10974;51.034;3.744;2023-06-14T07:09:22;7.93;;;4.27;;
21624;SDS011;10974;51.034;3.744;2023-06-14T07:11:49;9.03;;;4.20;;
21624;SDS011;10974;51.034;3.744;2023-06-14T07:14:15;5.37;;;4.10;;
21624;SDS011;10974;51.034;3.744;2023-06-14T07:16:41;6.20;;;4.30;;
21624;SDS011;10974;51.034;3.744;2023-06-14T07:19:08;6.40;;;3.87;;
21624;SDS011;10974;51.034;3.744;2023-06-14T07:21:35;5.70;;;4.13;;
21624;SDS011;10974;51.034;3.744;2023-06-14T07:24:07;10.30;;;4.23;;
21624;SDS011;10974;51.034;3.744;2023-06-14T07:26:34;7.40;;;4.43;;
21624;SDS011;10974;51.034;3.744;2023-06-14T07:29:00;4.17;;;3.70;;
21624;SDS011;10974;51.034;3.744;2023-06-14T07:31:26;4.37;;;3.60;;
21624;SDS011;10974;51.034;3.744;2023-06-14T07:33:52;3.63;;;3.30;;
21624;SDS011;10974;51.034;3.744;2023-06-14T07:36:18;4.37;;;3.27;;
21624;SDS011;10974;51.034;3.744;2023-06-14T07:38:45;3.57;;;3.10;;
21624;SDS011;10974;51.034;3.744;2023-06-14T07:41:11;3.87;;;2.97;;
21624;SDS011;10974;51.034;3.744;2023-06-14T07:43:37;3.90;;;2.90;;
21624;SDS011;10974;51.034;3.744;2023-06-14T07:46:04;6.30;;;5.70;;
21624;SDS011;10974;51.034;3.744;2023-06-14T07:48:30;6.80;;;5.97;;
21624;SDS011;10974;51.034;3.744;2023-06-14T07:50:56;6.80;;;6.10;;
21624;SDS011;10974;51.034;3.744;2023-06-14T07:53:22;6.20;;;5.60;;
21624;SDS011;10974;51.034;3.744;2023-06-14T07:55:48;6.50;;;5.90;;
21624;SDS011;10974;51.034;3.744;2023-06-14T07:58:15;7.13;;;6.53;;
21624;SDS011;10974;51.034;3.744;2023-06-14T08:00:41;7.60;;;6.20;;
21624;SDS011;10974;51.034;3.744;2023-06-14T08:03:07;6.80;;;6.10;;
21624;SDS011;10974;51.034;3.744;2023-06-14T08:05:33;6.70;;;6.07;;
21624;SDS011;10974;51.034;3.744;2023-06-14T08:08:00;7.83;;;5.83;;
21624;SDS011;10974;51.034;3.744;2023-06-14T08:10:26;6.57;;;5.33;;
21624;SDS011;10974;51.034;3.744;2023-06-14T08:12:52;5.90;;;5.40;;
21624;SDS011;10974;51.034;3.744;2023-06-14T08:15:18;6.03;;;4.97;;
21624;SDS011;10974;51.034;3.744;2023-06-14T08:17:44;5.73;;;5.23;;
21624;SDS011;10974;51.034;3.744;2023-06-14T08:20:10;6.60;;;5.63;;
21624;SDS011;10974;51.034;3.744;2023-06-14T08:22:37;7.20;;;5.43;;
21624;SDS011;10974;51.034;3.744;2023-06-14T08:25:04;7.87;;;6.13;;
21624;SDS011;10974;51.034;3.744;2023-06-14T08:27:31;8.10;;;6.00;;
21624;SDS011;10974;51.034;3.744;2023-06-14T08:29:57;6.77;;;6.10;;
21624;SDS011;10974;51.034;3.744;2023-06-14T08:32:23;8.27;;;5.27;;
21624;SDS011;10974;51.034;3.744;2023-06-14T08:34:50;6.93;;;5.73;;
21624;SDS011;10974;51.034;3.744;2023-06-14T08:37:16;7.43;;;5.83;;
21624;SDS011;10974;51.034;3.744;2023-06-14T08:39:42;7.73;;;5.70;;
21624;SDS011;10974;51.034;3.744;2023-06-14T08:42:09;6.70;;;5.63;;
21624;SDS011;10974;51.034;3.744;2023-06-14T08:44:35;7.77;;;5.67;;
21624;SDS011;10974;51.034;3.744;2023-06-14T08:47:01;7.47;;;5.97;;
21624;SDS011;10974;51.034;3.744;2023-06-14T08:49:31;6.70;;;5.63;;
21624;SDS011;10974;51.034;3.744;2023-06-14T08:51:57;7.13;;;6.00;;
21624;SDS011;10974;51.034;3.744;2023-06-14T08:54:25;8.53;;;5.70;;
21624;SDS011;10974;51.034;3.744;2023-06-14T08:56:52;6.67;;;5.97;;
21624;SDS011;10974;51.034;3.744;2023-06-14T08:59:19;6.10;;;5.50;;
21624;SDS011;10974;51.034;3.744;2023-06-14T09:01:47;6.20;;;5.33;;
21624;SDS011;10974;51.034;3.744;2023-06-14T09:04:13;6.80;;;5.80;;
21624;SDS011;10974;51.034;3.744;2023-06-14T09:06:39;6.77;;;6.00;;
21624;SDS011;10974;51.034;3.744;2023-06-14T09:09:05;5.67;;;5.20;;
21624;SDS011;10974;51.034;3.744;2023-06-14T09:11:32;9.63;;;5.40;;
21624;SDS011;10974;51.034;3.744;2023-06-14T09:13:58;5.43;;;4.93;;
21624;SDS011;10974;51.034;3.744;2023-06-14T09:16:25;5.60;;;5.10;;
21624;SDS011;10974;51.034;3.744;2023-06-14T09:18:51;6.17;;;5.23;;
21624;SDS011;10974;51.034;3.744;2023-06-14T09:21:17;6.00;;;5.13;;
21624;SDS011;10974;51.034;3.744;2023-06-14T09:23:44;6.67;;;5.70;;
21624;SDS011;10974;51.034;3.744;2023-06-14T09:26:18;5.37;;;4.87;;
21624;SDS011;10974;51.034;3.744;2023-06-14T09:28:49;5.23;;;4.77;;
21624;SDS011;10974;51.034;3.744;2023-06-14T09:31:16;6.37;;;5.30;;
21624;SDS011;10974;51.034;3.744;2023-06-14T09:33:51;5.63;;;5.03;;
21624;SDS011;10974;51.034;3.744;2023-06-14T09:38:57;5.60;;;5.10;;
21624;SDS011;10974;51.034;3.744;2023-06-14T09:41:32;5.53;;;5.00;;
21624;SDS011;10974;51.034;3.744;2023-06-14T09:43:59;5.17;;;4.77;;
21624;SDS011;10974;51.034;3.744;2023-06-14T09:46:27;5.83;;;5.23;;
21624;SDS011;10974;51.034;3.744;2023-06-14T09:48:54;5.73;;;5.07;;
21624;SDS011;10974;51.034;3.744;2023-06-14T09:51:22;5.70;;;5.20;;
21624;SDS011;10974;51.034;3.744;2023-06-14T09:53:48;5.73;;;5.23;;
21624;SDS011;10974;51.034;3.744;2023-06-14T09:56:27;6.00;;;5.40;;
21624;SDS011;10974;51.034;3.744;2023-06-14T09:58:57;5.50;;;5.00;;
21624;SDS011;10974;51.034;3.744;2023-06-14T10:01:24;10.30;;;5.10;;
21624;SDS011;10974;51.034;3.744;2023-06-14T10:03:55;4.93;;;4.43;;
21624;SDS011;10974;51.034;3.744;2023-06-14T10:06:23;5.60;;;5.10;;
21624;SDS011;10974;51.034;3.744;2023-06-14T10:08:52;5.67;;;5.10;;
21624;SDS011;10974;51.034;3.744;2023-06-14T10:11:21;5.87;;;5.37;;
21624;SDS011;10974;51.034;3.744;2023-06-14T10:13:47;6.33;;;5.73;;
21624;SDS011;10974;51.034;3.744;2023-06-14T10:16:19;5.80;;;5.30;;
21624;SDS011;10974;51.034;3.744;2023-06-14T10:24:18;5.80;;;5.23;;
21624;SDS011;10974;51.034;3.744;2023-06-14T10:26:53;5.87;;;5.20;;
21624;SDS011;10974;51.034;3.744;2023-06-14T10:29:19;7.10;;;5.17;;
21624;SDS011;10974;51.034;3.744;2023-06-14T10:31:49;5.20;;;4.70;;
21624;SDS011;10974;51.034;3.744;2023-06-14T10:34:28;5.50;;;4.90;;
21624;SDS011;10974;51.034;3.744;2023-06-14T10:37:04;5.63;;;5.13;;
21624;SDS011;10974;51.034;3.744;2023-06-14T10:39:31;5.00;;;4.60;;
21624;SDS011;10974;51.034;3.744;2023-06-14T10:41:58;5.50;;;5.10;;
21624;SDS011;10974;51.034;3.744;2023-06-14T10:46:58;5.70;;;5.20;;
21624;SDS011;10974;51.034;3.744;2023-06-14T10:52:07;5.70;;;5.03;;
21624;SDS011;10974;51.034;3.744;2023-06-14T10:54:37;5.47;;;5.07;;
21624;SDS011;10974;51.034;3.744;2023-06-14T10:57:03;6.07;;;5.50;;
21624;SDS011;10974;51.034;3.744;2023-06-14T10:59:36;5.07;;;4.67;;
21624;SDS011;10974;51.034;3.744;2023-06-14T11:04:50;5.23;;;4.83;;
21624;SDS011;10974;51.034;3.744;2023-06-14T11:12:47;5.97;;;5.47;;
21624;SDS011;10974;51.034;3.744;2023-06-14T11:15:14;5.50;;;5.10;;
21624;SDS011;10974;51.034;3.744;2023-06-14T11:17:49;5.40;;;5.00;;
21624;SDS011;10974;51.034;3.744;2023-06-14T11:20:16;5.30;;;4.80;;
21624;SDS011;10974;51.034;3.744;2023-06-14T11:22:42;5.67;;;5.17;;
21624;SDS011;10974;51.034;3.744;2023-06-14T11:25:09;5.27;;;4.73;;
21624;SDS011;10974;51.034;3.744;2023-06-14T11:27:35;5.33;;;4.93;;
21624;SDS011;10974;51.034;3.744;2023-06-14T11:30:01;5.40;;;4.90;;
21624;SDS011;10974;51.034;3.744;2023-06-14T11:32:27;5.40;;;4.90;;
21624;SDS011;10974;51.034;3.744;2023-06-14T11:34:53;5.80;;;4.57;;
21624;SDS011;10974;51.034;3.744;2023-06-14T11:37:19;5.13;;;4.50;;
21624;SDS011;10974;51.034;3.744;2023-06-14T11:39:45;5.10;;;4.60;;
21624;SDS011;10974;51.034;3.744;2023-06-14T11:42:15;6.10;;;5.30;;
21624;SDS011;10974;51.034;3.744;2023-06-14T11:44:41;5.30;;;4.83;;
21624;SDS011;10974;51.034;3.744;2023-06-14T11:47:07;4.73;;;4.33;;
21624;SDS011;10974;51.034;3.744;2023-06-14T11:49:36;4.97;;;4.57;;
21624;SDS011;10974;51.034;3.744;2023-06-14T11:52:02;4.90;;;4.40;;
21624;SDS011;10974;51.034;3.744;2023-06-14T11:54:28;8.03;;;4.90;;
21624;SDS011;10974;51.034;3.744;2023-06-14T11:56:54;5.43;;;4.93;;
21624;SDS011;10974;51.034;3.744;2023-06-14T11:59:21;4.77;;;4.37;;
21624;SDS011;10974;51.034;3.744;2023-06-14T12:01:47;8.23;;;5.13;;
21624;SDS011;10974;51.034;3.744;2023-06-14T12:04:13;5.43;;;5.00;;
21624;SDS011;10974;51.034;3.744;2023-06-14T12:06:39;5.80;;;5.30;;
21624;SDS011;10974;51.034;3.744;2023-06-14T12:09:06;5.13;;;4.63;;
21624;SDS011;10974;51.034;3.744;2023-06-14T12:11:37;4.87;;;4.47;;
21624;SDS011;10974;51.034;3.744;2023-06-14T12:14:07;4.93;;;4.43;;
21624;SDS011;10974;51.034;3.744;2023-06-14T12:16:35;5.30;;;4.90;;
21624;SDS011;10974;51.034;3.744;2023-06-14T12:19:07;5.30;;;4.80;;
21624;SDS011;10974;51.034;3.744;2023-06-14T12:21:36;5.00;;;4.60;;
21624;SDS011;10974;51.034;3.744;2023-06-14T12:24:03;4.70;;;4.30;;
21624;SDS011;10974;51.034;3.744;2023-06-14T12:26:31;5.43;;;4.93;;
21624;SDS011;10974;51.034;3.744;2023-06-14T12:28:58;5.20;;;4.80;;
21624;SDS011;10974;51.034;3.744;2023-06-14T12:31:24;5.53;;;5.03;;
21624;SDS011;10974;51.034;3.744;2023-06-14T12:33:51;4.80;;;4.40;;
21624;SDS011;10974;51.034;3.744;2023-06-14T12:36:17;5.27;;;4.87;;
21624;SDS011;10974;51.034;3.744;2023-06-14T12:38:45;4.80;;;4.40;;
21624;SDS011;10974;51.034;3.744;2023-06-14T12:41:11;5.33;;;4.83;;
21624;SDS011;10974;51.034;3.744;2023-06-14T12:43:39;6.87;;;4.73;;
21624;SDS011;10974;51.034;3.744;2023-06-14T12:46:05;4.90;;;4.50;;
21624;SDS011;10974;51.034;3.744;2023-06-14T12:48:31;5.20;;;4.80;;
21624;SDS011;10974;51.034;3.744;2023-06-14T12:50:59;4.70;;;4.13;;
21624;SDS011;10974;51.034;3.744;2023-06-14T12:53:25;5.00;;;4.60;;
21624;SDS011;10974;51.034;3.744;2023-06-14T12:55:51;4.90;;;4.50;;
21624;SDS011;10974;51.034;3.744;2023-06-14T12:58:17;4.53;;;4.23;;
21624;SDS011;10974;51.034;3.744;2023-06-14T13:00:45;5.30;;;4.90;;
21624;SDS011;10974;51.034;3.744;2023-06-14T13:03:11;4.93;;;4.43;;
21624;SDS011;10974;51.034;3.744;2023-06-14T13:05:38;5.03;;;4.60;;
21624;SDS011;10974;51.034;3.744;2023-06-14T13:08:06;5.63;;;5.13;;
21624;SDS011;10974;51.034;3.744;2023-06-14T13:10:34;4.80;;;4.40;;
21624;SDS011;10974;51.034;3.744;2023-06-14T13:13:00;5.20;;;4.80;;
21624;SDS011;10974;51.034;3.744;2023-06-14T13:15:26;4.60;;;4.23;;
21624;SDS011;10974;51.034;3.744;2023-06-14T13:17:53;5.10;;;4.60;;
21624;SDS011;10974;51.034;3.744;2023-06-14T13:20:20;4.73;;;4.40;;
21624;SDS011;10974;51.034;3.744;2023-06-14T13:22:46;4.77;;;4.47;;
21624;SDS011;10974;51.034;3.744;2023-06-14T13:25:12;4.27;;;3.87;;
21624;SDS011;10974;51.034;3.744;2023-06-14T13:27:38;5.10;;;4.70;;
21624;SDS011;10974;51.034;3.744;2023-06-14T13:30:04;7.40;;;4.37;;
21624;SDS011;10974;51.034;3.744;2023-06-14T13:32:30;4.73;;;4.33;;
21624;SDS011;10974;51.034;3.744;2023-06-14T13:34:57;4.87;;;4.47;;
21624;SDS011;10974;51.034;3.744;2023-06-14T13:37:23;4.50;;;4.20;;
21624;SDS011;10974;51.034;3.744;2023-06-14T13:39:49;5.07;;;4.57;;
21624;SDS011;10974;51.034;3.744;2023-06-14T13:42:15;4.30;;;4.00;;
21624;SDS011;10974;51.034;3.744;2023-06-14T13:44:41;4.73;;;4.27;;
21624;SDS011;10974;51.034;3.744;2023-06-14T13:47:07;5.60;;;5.10;;
21624;SDS011;10974;51.034;3.744;2023-06-14T13:49:33;4.63;;;4.23;;
21624;SDS011;10974;51.034;3.744;2023-06-14T13:52:00;4.70;;;4.30;;
21624;SDS011;10974;51.034;3.744;2023-06-14T13:54:26;5.20;;;4.77;;
21624;SDS011;10974;51.034;3.744;2023-06-14T13:56:53;4.40;;;4.10;;
21624;SDS011;10974;51.034;3.744;2023-06-14T13:59:19;4.90;;;4.50;;
21624;SDS011;10974;51.034;3.744;2023-06-14T14:01:45;4.77;;;4.37;;
21624;SDS011;10974;51.034;3.744;2023-06-14T14:04:12;4.73;;;4.33;;
21624;SDS011;10974;51.034;3.744;2023-06-14T14:06:38;4.37;;;4.00;;
21624;SDS011;10974;51.034;3.744;2023-06-14T14:09:04;4.70;;;4.30;;
21624;SDS011;10974;51.034;3.744;2023-06-14T14:11:30;4.33;;;3.90;;
21624;SDS011;10974;51.034;3.744;2023-06-14T14:13:58;4.90;;;4.50;;
21624;SDS011;10974;51.034;3.744;2023-06-14T14:16:24;6.13;;;4.20;;
21624;SDS011;10974;51.034;3.744;2023-06-14T14:18:50;4.07;;;3.77;;
21624;SDS011;10974;51.034;3.744;2023-06-14T14:21:16;4.03;;;3.73;;
21624;SDS011;10974;51.034;3.744;2023-06-14T14:23:43;4.23;;;3.83;;
21624;SDS011;10974;51.034;3.744;2023-06-14T14:26:10;4.47;;;4.07;;
21624;SDS011;10974;51.034;3.744;2023-06-14T14:28:36;4.40;;;4.00;;
21624;SDS011;10974;51.034;3.744;2023-06-14T14:31:02;5.50;;;3.63;;
21624;SDS011;10974;51.034;3.744;2023-06-14T14:33:28;4.63;;;4.23;;
21624;SDS011;10974;51.034;3.744;2023-06-14T14:35:54;5.03;;;4.10;;
21624;SDS011;10974;51.034;3.744;2023-06-14T14:38:20;4.90;;;4.27;;
21624;SDS011;10974;51.034;3.744;2023-06-14T14:40:46;4.30;;;4.00;;
21624;SDS011;10974;51.034;3.744;2023-06-14T14:43:13;4.30;;;3.90;;
21624;SDS011;10974;51.034;3.744;2023-06-14T14:45:39;4.47;;;3.80;;
21624;SDS011;10974;51.034;3.744;2023-06-14T14:48:05;3.70;;;3.40;;
21624;SDS011;10974;51.034;3.744;2023-06-14T14:50:32;4.03;;;3.73;;
21624;SDS011;10974;51.034;3.744;2023-06-14T14:52:58;4.20;;;3.90;;
21624;SDS011;10974;51.034;3.744;2023-06-14T14:55:24;4.30;;;3.97;;
21624;SDS011;10974;51.034;3.744;2023-06-14T14:57:50;3.83;;;3.53;;
21624;SDS011;10974;51.034;3.744;2023-06-14T15:00:17;4.10;;;3.80;;
21624;SDS011;10974;51.034;3.744;2023-06-14T15:02:43;3.53;;;3.33;;
21624;SDS011;10974;51.034;3.744;2023-06-14T15:05:09;3.70;;;3.40;;
21624;SDS011;10974;51.034;3.744;2023-06-14T15:07:35;3.97;;;3.67;;
21624;SDS011;10974;51.034;3.744;2023-06-14T15:10:01;3.67;;;3.37;;
21624;SDS011;10974;51.034;3.744;2023-06-14T15:12:27;4.30;;;3.50;;
21624;SDS011;10974;51.034;3.744;2023-06-14T15:14:53;3.77;;;3.43;;
21624;SDS011;10974;51.034;3.744;2023-06-14T15:17:19;3.90;;;3.53;;
21624;SDS011;10974;51.034;3.744;2023-06-14T15:19:46;3.77;;;3.43;;
21624;SDS011;10974;51.034;3.744;2023-06-14T15:22:13;3.30;;;3.10;;
21624;SDS011;10974;51.034;3.744;2023-06-14T15:24:40;3.70;;;3.40;;
21624;SDS011;10974;51.034;3.744;2023-06-14T15:27:06;3.33;;;3.07;;
21624;SDS011;10974;51.034;3.744;2023-06-14T15:29:33;6.63;;;3.10;;
21624;SDS011;10974;51.034;3.744;2023-06-14T15:32:00;3.10;;;2.90;;
21624;SDS011;10974;51.034;3.744;2023-06-14T15:34:26;3.00;;;2.80;;
21624;SDS011;10974;51.034;3.744;2023-06-14T15:36:52;5.10;;;2.80;;
21624;SDS011;10974;51.034;3.744;2023-06-14T15:39:18;4.30;;;3.20;;
21624;SDS011;10974;51.034;3.744;2023-06-14T15:41:44;4.20;;;3.13;;
21624;SDS011;10974;51.034;3.744;2023-06-14T15:44:11;2.30;;;2.10;;
21624;SDS011;10974;51.034;3.744;2023-06-14T15:46:37;3.70;;;3.00;;
21624;SDS011;10974;51.034;3.744;2023-06-14T15:49:09;2.90;;;2.70;;
21624;SDS011;10974;51.034;3.744;2023-06-14T15:51:36;2.77;;;2.57;;
21624;SDS011;10974;51.034;3.744;2023-06-14T15:54:02;3.50;;;3.07;;
21624;SDS011;10974;51.034;3.744;2023-06-14T15:56:28;2.70;;;2.50;;
21624;SDS011;10974;51.034;3.744;2023-06-14T15:58:55;3.10;;;2.73;;
21624;SDS011;10974;51.034;3.744;2023-06-14T16:01:21;3.60;;;2.97;;
21624;SDS011;10974;51.034;3.744;2023-06-14T16:03:48;2.67;;;2.37;;
21624;SDS011;10974;51.034;3.744;2023-06-14T16:06:14;3.03;;;2.30;;
21624;SDS011;10974;51.034;3.744;2023-06-14T16:08:40;4.87;;;3.00;;
21624;SDS011;10974;51.034;3.744;2023-06-14T16:11:06;4.23;;;2.50;;
21624;SDS011;10974;51.034;3.744;2023-06-14T16:13:33;3.13;;;2.77;;
21624;SDS011;10974;51.034;3.744;2023-06-14T16:15:59;2.97;;;2.77;;
21624;SDS011;10974;51.034;3.744;2023-06-14T16:18:25;2.60;;;2.20;;
21624;SDS011;10974;51.034;3.744;2023-06-14T16:20:51;2.73;;;2.53;;
21624;SDS011;10974;51.034;3.744;2023-06-14T16:23:20;2.57;;;2.37;;
21624;SDS011;10974;51.034;3.744;2023-06-14T16:25:46;5.10;;;2.53;;
21624;SDS011;10974;51.034;3.744;2023-06-14T16:28:12;3.70;;;2.73;;
21624;SDS011;10974;51.034;3.744;2023-06-14T16:30:38;5.27;;;2.60;;
21624;SDS011;10974;51.034;3.744;2023-06-14T16:33:05;5.63;;;2.40;;
21624;SDS011;10974;51.034;3.744;2023-06-14T16:35:31;3.43;;;2.50;;
21624;SDS011;10974;51.034;3.744;2023-06-14T16:37:57;3.87;;;2.87;;
21624;SDS011;10974;51.034;3.744;2023-06-14T16:40:23;2.60;;;2.40;;
21624;SDS011;10974;51.034;3.744;2023-06-14T16:42:50;3.00;;;2.40;;
21624;SDS011;10974;51.034;3.744;2023-06-14T16:45:16;3.87;;;2.67;;
21624;SDS011;10974;51.034;3.744;2023-06-14T16:47:42;4.03;;;2.40;;
21624;SDS011;10974;51.034;3.744;2023-06-14T16:50:08;5.60;;;2.30;;
21624;SDS011;10974;51.034;3.744;2023-06-14T16:52:34;2.70;;;2.50;;
21624;SDS011;10974;51.034;3.744;2023-06-14T16:55:00;2.60;;;2.27;;
21624;SDS011;10974;51.034;3.744;2023-06-14T16:57:26;2.43;;;2.10;;
21624;SDS011;10974;51.034;3.744;2023-06-14T16:59:52;6.00;;;2.53;;
21624;SDS011;10974;51.034;3.744;2023-06-14T17:02:18;3.30;;;2.30;;
21624;SDS011;10974;51.034;3.744;2023-06-14T17:04:44;3.83;;;2.20;;
21624;SDS011;10974;51.034;3.744;2023-06-14T17:07:10;3.53;;;2.17;;
21624;SDS011;10974;51.034;3.744;2023-06-14T17:09:36;2.73;;;2.10;;
21624;SDS011;10974;51.034;3.744;2023-06-14T17:12:03;3.10;;;1.93;;
21624;SDS011;10974;51.034;3.744;2023-06-14T17:14:29;1.90;;;1.80;;
21624;SDS011;10974;51.034;3.744;2023-06-14T17:16:55;1.90;;;1.80;;
21624;SDS011;10974;51.034;3.744;2023-06-14T17:19:21;3.20;;;2.43;;
21624;SDS011;10974;51.034;3.744;2023-06-14T17:21:47;8.03;;;2.43;;
21624;SDS011;10974;51.034;3.744;2023-06-14T17:24:16;3.37;;;1.90;;
21624;SDS011;10974;51.034;3.744;2023-06-14T17:26:42;3.40;;;1.93;;
21624;SDS011;10974;51.034;3.744;2023-06-14T17:29:09;4.63;;;2.20;;
21624;SDS011;10974;51.034;3.744;2023-06-14T17:31:35;9.00;;;3.03;;
21624;SDS011;10974;51.034;3.744;2023-06-14T17:34:01;11.87;;;3.20;;
21624;SDS011;10974;51.034;3.744;2023-06-14T17:36:27;19.23;;;3.30;;
21624;SDS011;10974;51.034;3.744;2023-06-14T17:38:53;5.73;;;2.60;;
21624;SDS011;10974;51.034;3.744;2023-06-14T17:41:20;10.53;;;2.93;;
21624;SDS011;10974;51.034;3.744;2023-06-14T17:43:48;20.90;;;3.10;;
21624;SDS011;10974;51.034;3.744;2023-06-14T17:46:14;9.33;;;2.27;;
21624;SDS011;10974;51.034;3.744;2023-06-14T17:48:40;4.73;;;2.23;;
21624;SDS011;10974;51.034;3.744;2023-06-14T17:51:06;3.90;;;2.00;;
21624;SDS011;10974;51.034;3.744;2023-06-14T17:53:32;3.30;;;2.17;;
21624;SDS011;10974;51.034;3.744;2023-06-14T17:55:59;4.87;;;2.10;;
21624;SDS011;10974;51.034;3.744;2023-06-14T17:58:26;1.37;;;1.27;;
21624;SDS011;10974;51.034;3.744;2023-06-14T18:00:52;1.60;;;1.50;;
21624;SDS011;10974;51.034;3.744;2023-06-14T18:03:18;3.60;;;2.10;;
21624;SDS011;10974;51.034;3.744;2023-06-14T18:05:44;3.50;;;1.90;;
21624;SDS011;10974;51.034;3.744;2023-06-14T18:08:11;1.67;;;1.57;;
21624;SDS011;10974;51.034;3.744;2023-06-14T18:10:37;1.60;;;1.50;;
21624;SDS011;10974;51.034;3.744;2023-06-14T18:13:04;1.70;;;1.60;;
21624;SDS011;10974;51.034;3.744;2023-06-14T18:15:30;1.90;;;1.70;;
21624;SDS011;10974;51.034;3.744;2023-06-14T18:17:56;1.80;;;1.70;;
21624;SDS011;10974;51.034;3.744;2023-06-14T18:20:22;1.87;;;1.73;;
21624;SDS011;10974;51.034;3.744;2023-06-14T18:22:49;3.30;;;1.70;;
21624;SDS011;10974;51.034;3.744;2023-06-14T18:25:15;2.23;;;1.70;;
21624;SDS011;10974;51.034;3.744;2023-06-14T18:27:46;2.60;;;2.00;;
21624;SDS011;10974;51.034;3.744;2023-06-14T18:30:12;2.37;;;2.00;;
21624;SDS011;10974;51.034;3.744;2023-06-14T18:32:39;1.90;;;1.73;;
21624;SDS011;10974;51.034;3.744;2023-06-14T18:35:06;2.67;;;2.30;;
21624;SDS011;10974;51.034;3.744;2023-06-14T18:37:33;8.87;;;2.50;;
21624;SDS011;10974;51.034;3.744;2023-06-14T18:39:59;3.00;;;2.10;;
21624;SDS011;10974;51.034;3.744;2023-06-14T18:42:27;2.63;;;2.40;;
21624;SDS011;10974;51.034;3.744;2023-06-14T18:44:53;2.10;;;1.90;;
21624;SDS011;10974;51.034;3.744;2023-06-14T18:47:19;2.47;;;2.10;;